createdAt,value
2019-05-17T00:01:09.938Z,31.80
2019-05-17T00:03:37.593Z,32.23
2019-05-17T00:06:06.890Z,32.40
2019-05-17T00:08:37.832Z,30.03
2019-05-17T00:11:06.538Z,29.67
2019-05-17T00:13:33.666Z,30.33
2019-05-17T00:16:01.341Z,30.40
2019-05-17T00:18:28.994Z,30.60
2019-05-17T00:20:57.058Z,29.40
2019-05-17T00:23:26.934Z,29.20
2019-05-17T00:25:56.354Z,30.43
2019-05-17T00:28:24.081Z,30.30
2019-05-17T00:30:51.747Z,28.87
2019-05-17T00:33:19.424Z,30.07
2019-05-17T00:35:47.142Z,30.53
2019-05-17T00:38:16.752Z,29.53
2019-05-17T00:40:44.241Z,27.87
2019-05-17T00:43:11.887Z,28.37
2019-05-17T00:45:39.501Z,27.73
2019-05-17T00:48:09.032Z,28.67
2019-05-17T00:50:37.932Z,27.10
2019-05-17T00:53:07.246Z,28.97
2019-05-17T00:55:36.259Z,28.00
2019-05-17T00:58:06.443Z,27.30
2019-05-17T01:00:33.776Z,28.90
2019-05-17T01:03:01.423Z,26.80
2019-05-17T01:05:29.046Z,29.57
2019-05-17T01:07:57.339Z,29.07
2019-05-17T01:10:27.218Z,28.13
2019-05-17T01:12:57.395Z,28.27
2019-05-17T01:15:24.542Z,27.73
2019-05-17T01:17:52.182Z,28.23
2019-05-17T01:20:19.809Z,27.97
2019-05-17T01:22:47.657Z,27.17
2019-05-17T01:25:17.193Z,28.13
2019-05-17T01:27:47.209Z,27.07
2019-05-17T01:30:14.431Z,27.43
2019-05-17T01:32:42.087Z,28.03
2019-05-17T01:35:09.808Z,28.43
2019-05-17T01:37:37.463Z,27.33
2019-05-17T01:40:06.759Z,28.67
2019-05-17T01:42:37.144Z,27.67
2019-05-17T01:45:04.445Z,28.77
2019-05-17T01:47:32.078Z,27.50
2019-05-17T01:49:59.742Z,28.93
2019-05-17T01:52:27.481Z,30.63
2019-05-17T01:54:57.009Z,28.47
2019-05-17T01:57:24.614Z,28.13
2019-05-17T01:59:52.253Z,28.27
2019-05-17T02:02:26.989Z,28.27
2019-05-17T02:04:56.875Z,27.03
2019-05-17T02:07:26.624Z,28.00
2019-05-17T02:09:53.629Z,28.10
2019-05-17T02:12:21.223Z,28.57
2019-05-17T02:14:48.866Z,27.57
2019-05-17T02:17:17.436Z,28.57
2019-05-17T02:19:46.577Z,27.37
2019-05-17T02:22:16.559Z,26.80
2019-05-17T02:24:43.730Z,27.40
2019-05-17T02:27:11.678Z,28.93
2019-05-17T02:29:39.331Z,29.80
2019-05-17T02:32:06.949Z,29.20
2019-05-17T02:34:34.571Z,29.30
2019-05-17T02:37:02.952Z,30.07
2019-05-17T02:39:32.714Z,29.63
2019-05-17T02:42:02.847Z,30.57
2019-05-17T02:44:33.147Z,28.50
2019-05-17T02:46:59.142Z,30.43
2019-05-17T02:49:26.750Z,30.63
2019-05-17T02:51:54.416Z,29.57
2019-05-17T02:54:23.569Z,29.00
2019-05-17T02:56:53.862Z,30.23
2019-05-17T02:59:23.186Z,30.63
2019-05-17T03:01:52.729Z,30.50
2019-05-17T03:04:19.731Z,30.90
2019-05-17T03:06:47.388Z,29.97
2019-05-17T03:09:14.991Z,30.53
2019-05-17T03:11:43.070Z,30.37
2019-05-17T03:14:12.807Z,31.60
2019-05-17T03:16:42.773Z,31.17
2019-05-17T03:19:12.800Z,31.83
2019-05-17T03:21:39.235Z,30.53
2019-05-17T03:24:06.876Z,30.07
2019-05-17T03:26:34.543Z,31.00
2019-05-17T03:29:03.328Z,29.93
2019-05-17T03:31:40.681Z,30.47
2019-05-17T03:34:06.612Z,32.50
2019-05-17T03:36:36.288Z,31.60
2019-05-17T03:39:03.307Z,32.80
2019-05-17T03:41:33.753Z,30.73
2019-05-17T03:44:03.203Z,31.50
2019-05-17T03:46:33.186Z,31.63
2019-05-17T03:48:59.401Z,30.47
2019-05-17T03:51:27.039Z,29.90
2019-05-17T03:53:54.672Z,31.07
2019-05-17T03:56:22.579Z,32.23
2019-05-17T03:58:52.950Z,31.07
2019-05-17T04:01:22.938Z,30.77
2019-05-17T04:03:49.127Z,32.17
2019-05-17T04:06:18.567Z,30.37
2019-05-17T04:08:46.283Z,31.10
2019-05-17T04:11:25.952Z,30.60
2019-05-17T04:13:43.384Z,30.40
2019-05-17T04:16:13.865Z,31.40
2019-05-17T04:18:43.629Z,29.90
2019-05-17T04:21:23.407Z,30.70
2019-05-17T04:23:53.852Z,29.80
2019-05-17T04:26:22.923Z,29.53
2019-05-17T04:28:53.238Z,29.37
2019-05-17T04:31:22.703Z,29.40
2019-05-17T04:33:49.618Z,29.63
2019-05-17T04:36:18.505Z,28.10
2019-05-17T04:38:46.110Z,29.63
2019-05-17T04:41:13.712Z,28.90
2019-05-17T04:43:42.493Z,27.90
2019-05-17T04:46:12.967Z,28.63
2019-05-17T04:48:43.511Z,28.93
2019-05-17T04:51:12.838Z,27.87
2019-05-17T04:53:38.749Z,27.47
2019-05-17T04:56:06.792Z,27.23
2019-05-17T04:58:34.483Z,28.27
2019-05-17T05:01:04.152Z,28.53
2019-05-17T05:03:32.896Z,27.57
2019-05-17T05:06:03.047Z,26.30
2019-05-17T05:08:32.776Z,25.70
2019-05-17T05:10:59.439Z,24.90
2019-05-17T05:13:27.099Z,26.07
2019-05-17T05:15:54.756Z,26.53
2019-05-17T05:18:22.473Z,24.87
2019-05-17T05:20:52.476Z,25.33
2019-05-17T05:23:19.578Z,24.30
2019-05-17T05:25:48.040Z,25.67
2019-05-17T05:28:15.804Z,24.57
2019-05-17T05:30:43.406Z,25.13
2019-05-17T05:33:12.973Z,24.53
2019-05-17T05:35:42.495Z,24.47
2019-05-17T05:38:12.652Z,22.13
2019-05-17T05:40:41.403Z,23.47
2019-05-17T05:43:11.949Z,21.93
2019-05-17T05:45:41.827Z,22.00
2019-05-17T05:48:09.584Z,22.13
2019-05-17T05:50:37.238Z,21.40
2019-05-17T05:53:04.892Z,21.73
2019-05-17T05:55:32.506Z,20.80
2019-05-17T05:58:00.120Z,20.43
2019-05-17T06:00:28.380Z,19.53
2019-05-17T06:02:56.026Z,18.63
2019-05-17T06:05:23.708Z,18.40
2019-05-17T06:07:52.225Z,17.13
2019-05-17T06:10:21.860Z,17.90
2019-05-17T06:12:51.628Z,17.97
2019-05-17T06:15:18.996Z,17.97
2019-05-17T06:17:46.609Z,16.57
2019-05-17T06:20:14.288Z,15.53
2019-05-17T06:22:42.740Z,15.50
2019-05-17T06:25:15.189Z,15.00
2019-05-17T06:27:41.649Z,14.93
2019-05-17T06:30:12.295Z,15.33
2019-05-17T06:32:39.336Z,14.63
2019-05-17T06:35:06.964Z,15.07
2019-05-17T06:37:34.590Z,14.43
2019-05-17T06:40:02.674Z,13.77
2019-05-17T06:42:40.398Z,13.57
2019-05-17T06:45:01.957Z,13.67
2019-05-17T06:47:29.194Z,13.40
2019-05-17T06:49:56.829Z,13.90
2019-05-17T06:52:24.444Z,13.53
2019-05-17T06:54:52.469Z,13.63
2019-05-17T06:57:20.238Z,13.37
2019-05-17T06:59:47.893Z,12.10
2019-05-17T07:02:15.535Z,12.67
2019-05-17T07:04:43.179Z,12.97
2019-05-17T07:07:25.950Z,12.10
2019-05-17T07:09:55.758Z,12.17
2019-05-17T07:12:23.346Z,13.20
2019-05-17T07:14:51.028Z,11.73
2019-05-17T07:17:19.717Z,11.27
2019-05-17T07:19:47.519Z,12.33
2019-05-17T07:22:15.230Z,12.23
2019-05-17T07:24:42.897Z,12.90
2019-05-17T07:27:10.515Z,12.47
2019-05-17T07:29:40.194Z,12.60
2019-05-17T07:32:09.695Z,12.77
2019-05-17T07:34:37.045Z,12.83
2019-05-17T07:37:04.671Z,11.97
2019-05-17T07:39:32.305Z,11.87
2019-05-17T07:42:00.063Z,12.03
2019-05-17T07:44:29.442Z,11.97
2019-05-17T07:46:57.214Z,12.33
2019-05-17T07:49:24.810Z,11.53
2019-05-17T07:51:53.843Z,11.53
2019-05-17T07:54:21.482Z,11.07
2019-05-17T07:56:50.538Z,11.40
2019-05-17T07:59:19.996Z,10.07
2019-05-17T08:01:50.205Z,10.57
2019-05-17T08:04:17.191Z,10.43
2019-05-17T08:06:44.841Z,10.37
2019-05-17T08:09:14.137Z,10.97
2019-05-17T08:11:41.916Z,10.00
2019-05-17T08:14:10.517Z,9.73
2019-05-17T08:16:39.462Z,9.60
2019-05-17T08:19:09.585Z,9.50
2019-05-17T08:21:36.794Z,9.53
2019-05-17T08:24:04.424Z,8.97
2019-05-17T08:26:32.209Z,8.70
2019-05-17T08:31:46.952Z,8.20
2019-05-17T08:34:14.578Z,8.27
2019-05-17T08:36:42.226Z,7.67
2019-05-17T08:39:10.250Z,8.13
2019-05-17T08:41:40.247Z,7.60
2019-05-17T08:44:09.893Z,7.77
2019-05-17T08:46:36.922Z,6.50
2019-05-17T08:49:04.526Z,7.03
2019-05-17T08:51:32.182Z,7.17
2019-05-17T08:54:02.582Z,6.67
2019-05-17T08:56:30.926Z,7.47
2019-05-17T08:59:00.752Z,6.30
2019-05-17T09:01:30.198Z,6.70
2019-05-17T09:03:59.662Z,6.87
2019-05-17T09:06:29.179Z,6.70
2019-05-17T09:08:56.442Z,6.70
2019-05-17T09:11:24.068Z,6.63
2019-05-17T09:13:57.521Z,6.83
2019-05-17T09:16:21.194Z,6.70
2019-05-17T09:18:50.194Z,7.37
2019-05-17T09:21:18.060Z,6.47
2019-05-17T09:23:45.655Z,6.77
2019-05-17T09:26:13.278Z,6.70
2019-05-17T09:28:40.958Z,6.90
2019-05-17T09:31:10.458Z,6.17
2019-05-17T09:33:40.435Z,6.63
2019-05-17T09:36:10.158Z,6.63
2019-05-17T09:38:37.582Z,6.57
2019-05-17T09:41:05.252Z,6.50
2019-05-17T09:43:32.898Z,6.80
2019-05-17T09:46:01.566Z,6.30
2019-05-17T09:48:30.715Z,6.17
2019-05-17T09:50:59.992Z,6.60
2019-05-17T09:53:30.473Z,6.13
2019-05-17T09:55:57.361Z,6.10
2019-05-17T09:58:24.960Z,6.30
2019-05-17T10:00:52.594Z,6.47
2019-05-17T10:03:23.790Z,5.93
2019-05-17T10:05:49.714Z,5.87
2019-05-17T10:08:17.318Z,6.57
2019-05-17T10:10:44.933Z,6.00
2019-05-17T10:13:12.563Z,5.87
2019-05-17T10:15:41.017Z,6.37
2019-05-17T10:18:11.010Z,6.03
2019-05-17T10:20:39.888Z,6.40
2019-05-17T10:23:10.180Z,5.73
2019-05-17T10:25:37.141Z,5.37
2019-05-17T10:28:04.807Z,5.17
2019-05-17T10:30:32.437Z,5.30
2019-05-17T10:33:00.200Z,5.33
2019-05-17T10:35:29.543Z,5.70
2019-05-17T10:37:59.371Z,5.50
2019-05-17T10:40:26.664Z,5.17
2019-05-17T10:42:54.356Z,4.87
2019-05-17T10:45:21.962Z,5.00
2019-05-17T10:47:50.319Z,5.63
2019-05-17T10:50:20.400Z,5.50
2019-05-17T10:52:47.613Z,4.80
2019-05-17T10:55:15.239Z,5.00
2019-05-17T10:57:42.947Z,5.03
2019-05-17T11:00:10.858Z,5.17
2019-05-17T11:02:38.612Z,4.37
2019-05-17T11:05:06.330Z,4.70
2019-05-17T11:07:33.957Z,4.97
2019-05-17T11:10:01.585Z,4.63
2019-05-17T11:12:29.217Z,4.70
2019-05-17T11:15:10.361Z,4.67
2019-05-17T11:17:26.311Z,5.00
2019-05-17T11:19:53.921Z,4.67
2019-05-17T11:22:22.977Z,4.63
2019-05-17T11:24:50.695Z,4.70
2019-05-17T11:27:18.358Z,4.30
2019-05-17T11:29:45.985Z,4.80
2019-05-17T11:32:13.609Z,5.00
2019-05-17T11:34:41.211Z,5.27
2019-05-17T11:37:08.833Z,4.80
2019-05-17T11:39:36.456Z,5.03
2019-05-17T11:42:04.128Z,4.30
2019-05-17T11:44:31.736Z,4.30
2019-05-17T11:46:59.342Z,4.53
2019-05-17T11:49:27.015Z,4.63
2019-05-17T11:51:54.686Z,4.43
2019-05-17T11:54:22.309Z,4.20
2019-05-17T11:57:12.234Z,4.37
2019-05-17T11:59:38.886Z,4.97
2019-05-17T12:02:06.525Z,4.83
2019-05-17T12:04:36.657Z,4.20
2019-05-17T12:07:04.396Z,4.20
2019-05-17T12:09:37.260Z,4.50
2019-05-17T12:12:01.488Z,4.90
2019-05-17T12:14:29.154Z,4.70
2019-05-17T12:16:56.769Z,4.70
2019-05-17T12:19:24.409Z,4.60
2019-05-17T12:21:52.051Z,4.73
2019-05-17T12:24:19.695Z,4.30
2019-05-17T12:26:47.644Z,5.07
2019-05-17T12:29:15.378Z,4.73
2019-05-17T12:31:42.998Z,4.70
2019-05-17T12:34:10.632Z,4.50
2019-05-17T12:36:38.227Z,4.33
2019-05-17T12:39:06.242Z,4.70
2019-05-17T12:41:33.849Z,5.10
2019-05-17T12:44:01.507Z,5.00
2019-05-17T12:46:29.118Z,5.00
2019-05-17T12:48:56.755Z,5.00
2019-05-17T12:51:24.367Z,4.93
2019-05-17T12:53:52.007Z,4.40
2019-05-17T12:56:19.605Z,4.90
2019-05-17T12:58:47.225Z,4.73
2019-05-17T13:01:14.882Z,5.50
2019-05-17T13:03:42.540Z,5.70
2019-05-17T13:06:10.187Z,5.33
2019-05-17T13:08:38.040Z,5.40
2019-05-17T13:11:05.641Z,5.00
2019-05-17T13:13:33.272Z,4.70
2019-05-17T13:16:16.483Z,5.20
2019-05-17T13:18:30.328Z,4.90
2019-05-17T13:20:57.944Z,4.90
2019-05-17T13:23:25.594Z,5.30
2019-05-17T13:25:53.208Z,5.30
2019-05-17T13:28:20.881Z,5.90
2019-05-17T13:30:48.487Z,6.47
2019-05-17T13:33:16.155Z,5.97
2019-05-17T13:35:43.759Z,6.20
2019-05-17T13:38:11.366Z,6.57
2019-05-17T13:40:40.090Z,7.23
2019-05-17T13:43:07.812Z,7.20
2019-05-17T13:45:35.431Z,6.97
2019-05-17T13:48:03.071Z,6.90
2019-05-17T13:50:30.737Z,7.87
2019-05-17T13:52:58.382Z,7.10
2019-05-17T13:55:25.986Z,7.03
2019-05-17T13:57:53.608Z,7.00
2019-05-17T14:00:21.244Z,6.37
2019-05-17T14:02:48.878Z,6.67
2019-05-17T14:05:16.542Z,6.70
2019-05-17T14:07:44.154Z,7.13
2019-05-17T14:10:26.254Z,6.73
2019-05-17T14:12:41.244Z,6.57
2019-05-17T14:15:09.095Z,6.40
2019-05-17T14:17:36.768Z,7.17
2019-05-17T14:20:04.493Z,6.43
2019-05-17T14:22:32.141Z,7.23
2019-05-17T14:24:59.773Z,7.07
2019-05-17T14:27:27.428Z,7.27
2019-05-17T14:29:55.178Z,6.73
2019-05-17T14:32:26.122Z,7.30
2019-05-17T14:34:53.727Z,7.37
2019-05-17T14:37:21.381Z,8.37
2019-05-17T14:39:49.018Z,7.33
2019-05-17T14:42:16.708Z,7.40
2019-05-17T14:44:44.339Z,7.80
2019-05-17T14:47:11.979Z,7.90
2019-05-17T14:49:39.698Z,7.50
2019-05-17T14:52:07.383Z,7.63
2019-05-17T14:54:35.084Z,8.10
2019-05-17T14:57:02.714Z,8.73
2019-05-17T14:59:30.367Z,8.87
2019-05-17T15:01:57.981Z,9.23
2019-05-17T15:04:25.607Z,9.00
2019-05-17T15:06:53.252Z,9.33
2019-05-17T15:09:20.844Z,9.67
2019-05-17T15:11:48.493Z,9.63
2019-05-17T15:14:16.072Z,10.17
2019-05-17T15:16:43.707Z,10.13
2019-05-17T15:19:11.329Z,9.07
2019-05-17T15:21:39.039Z,9.40
2019-05-17T15:24:06.738Z,9.70
2019-05-17T15:26:35.772Z,8.73
2019-05-17T15:29:03.626Z,10.33
2019-05-17T15:31:31.251Z,9.50
2019-05-17T15:33:58.875Z,9.67
2019-05-17T15:36:28.065Z,9.90
2019-05-17T15:38:55.644Z,11.03
2019-05-17T15:41:23.279Z,10.23
2019-05-17T15:43:50.910Z,11.77
2019-05-17T15:46:18.620Z,11.53
2019-05-17T15:48:46.224Z,12.60
2019-05-17T15:51:13.898Z,12.40
2019-05-17T15:53:41.535Z,12.00
2019-05-17T15:56:09.197Z,13.57
2019-05-17T15:58:36.831Z,13.67
2019-05-17T16:01:04.472Z,12.20
2019-05-17T16:03:32.084Z,13.20
2019-05-17T16:05:59.709Z,13.50
2019-05-17T16:08:29.676Z,13.30
2019-05-17T16:10:56.766Z,12.70
2019-05-17T16:13:24.394Z,14.17
2019-05-17T16:15:52.041Z,13.73
2019-05-17T16:18:19.711Z,13.57
2019-05-17T16:20:47.368Z,13.20
2019-05-17T16:23:15.048Z,13.10
2019-05-17T16:25:42.657Z,13.73
2019-05-17T16:28:10.283Z,14.43
2019-05-17T16:30:37.903Z,13.93
2019-05-17T16:33:05.540Z,13.43
2019-05-17T16:35:33.142Z,13.43
2019-05-17T16:38:00.783Z,13.77
2019-05-17T16:40:28.412Z,14.33
2019-05-17T16:42:56.050Z,13.97
2019-05-17T16:45:23.685Z,13.87
2019-05-17T16:47:51.364Z,13.67
2019-05-17T16:50:18.979Z,14.23
2019-05-17T16:52:46.600Z,16.03
2019-05-17T16:55:14.226Z,15.23
2019-05-17T16:57:41.879Z,15.80
2019-05-17T17:00:26.637Z,16.33
2019-05-17T17:02:54.562Z,15.43
2019-05-17T17:05:22.197Z,15.90
2019-05-17T17:07:49.857Z,16.43
2019-05-17T17:10:17.484Z,16.27
2019-05-17T17:12:45.126Z,16.00
2019-05-17T17:15:12.857Z,16.50
2019-05-17T17:17:40.506Z,16.23
2019-05-17T17:20:08.250Z,15.77
2019-05-17T17:22:35.953Z,15.83
2019-05-17T17:25:03.769Z,16.50
2019-05-17T17:27:31.441Z,16.23
2019-05-17T17:29:59.053Z,16.50
2019-05-17T17:32:26.692Z,15.93
2019-05-17T17:34:54.359Z,16.60
2019-05-17T17:37:21.999Z,17.53
2019-05-17T17:39:49.675Z,16.43
2019-05-17T17:42:17.285Z,17.07
2019-05-17T17:44:45.061Z,17.63
2019-05-17T17:47:12.669Z,16.77
2019-05-17T17:49:40.324Z,17.30
2019-05-17T17:52:07.962Z,18.17
2019-05-17T17:54:35.609Z,17.33
2019-05-17T17:57:03.351Z,16.93
2019-05-17T17:59:31.049Z,17.60
2019-05-17T18:01:58.700Z,17.87
2019-05-17T18:04:26.355Z,18.70
2019-05-17T18:06:54.173Z,17.70
2019-05-17T18:09:21.802Z,19.33
2019-05-17T18:11:49.466Z,17.43
2019-05-17T18:14:17.126Z,18.67
2019-05-17T18:16:44.759Z,20.97
2019-05-17T18:19:12.385Z,19.90
2019-05-17T18:21:40.030Z,19.23
2019-05-17T18:24:07.672Z,19.73
2019-05-17T18:26:35.304Z,19.87
2019-05-17T18:29:02.973Z,19.80
2019-05-17T18:31:30.615Z,19.37
2019-05-17T18:33:58.250Z,20.17
2019-05-17T18:36:25.837Z,19.10
2019-05-17T18:38:53.809Z,22.10
2019-05-17T18:41:21.479Z,19.63
2019-05-17T18:43:49.266Z,22.27
2019-05-17T18:46:27.355Z,21.70
2019-05-17T18:48:54.985Z,20.97
2019-05-17T18:51:22.610Z,22.00
2019-05-17T18:53:50.449Z,22.33
2019-05-17T18:56:18.188Z,20.57
2019-05-17T18:58:45.785Z,22.27
2019-05-17T19:01:13.437Z,22.37
2019-05-17T19:03:41.090Z,21.47
2019-05-17T19:06:08.763Z,22.43
2019-05-17T19:08:36.366Z,23.23
2019-05-17T19:11:04.148Z,21.03
2019-05-17T19:13:31.762Z,21.47
2019-05-17T19:15:59.433Z,20.77
2019-05-17T19:18:27.068Z,22.20
2019-05-17T19:20:54.747Z,22.00
2019-05-17T19:23:25.432Z,22.57
2019-05-17T19:25:51.917Z,22.97
2019-05-17T19:28:19.564Z,21.70
2019-05-17T19:30:47.247Z,24.47
2019-05-17T19:33:14.864Z,22.97
2019-05-17T19:35:42.514Z,24.47
2019-05-17T19:38:10.129Z,25.63
2019-05-17T19:40:37.789Z,26.03
2019-05-17T19:43:05.402Z,25.90
2019-05-17T19:45:33.040Z,22.67
2019-05-17T19:48:00.676Z,24.87
2019-05-17T19:50:28.319Z,22.43
2019-05-17T19:52:55.988Z,25.43
2019-05-17T19:55:23.658Z,25.53
2019-05-17T19:57:51.363Z,25.73
2019-05-17T20:00:19.217Z,26.03
2019-05-17T20:02:46.851Z,25.53
2019-05-17T20:05:14.607Z,25.10
2019-05-17T20:07:42.202Z,27.23
2019-05-17T20:10:10.023Z,26.03
2019-05-17T20:12:37.657Z,26.17
2019-05-17T20:15:16.735Z,26.23
2019-05-17T20:17:35.654Z,29.73
2019-05-17T20:20:03.848Z,28.57
2019-05-17T20:22:31.482Z,26.93
2019-05-17T20:24:59.152Z,26.83
2019-05-17T20:27:26.854Z,26.03
2019-05-17T20:29:54.488Z,25.37
2019-05-17T20:32:22.175Z,27.07
2019-05-17T20:34:49.788Z,23.43
2019-05-17T20:37:17.451Z,21.67
2019-05-17T20:39:45.062Z,23.27
2019-05-17T20:42:12.789Z,21.77
2019-05-17T20:44:40.481Z,19.57
2019-05-17T20:47:08.104Z,20.53
2019-05-17T20:49:35.778Z,20.43
2019-05-17T20:52:03.455Z,20.23
2019-05-17T20:54:31.214Z,19.93
2019-05-17T20:56:58.862Z,19.70
2019-05-17T20:59:26.489Z,19.07
2019-05-17T21:01:54.104Z,19.23
2019-05-17T21:04:21.866Z,19.13
2019-05-17T21:06:49.500Z,17.13
2019-05-17T21:09:17.135Z,17.47
2019-05-17T21:11:44.787Z,17.57
2019-05-17T21:14:12.412Z,17.07
2019-05-17T21:16:40.064Z,17.27
2019-05-17T21:19:07.704Z,18.47
2019-05-17T21:21:35.337Z,17.63
2019-05-17T21:24:03.055Z,16.97
2019-05-17T21:26:30.703Z,17.37
2019-05-17T21:28:58.381Z,16.77
2019-05-17T21:31:26.059Z,17.10
2019-05-17T21:33:53.665Z,16.30
2019-05-17T21:36:22.695Z,16.20
2019-05-17T21:38:50.320Z,16.40
2019-05-17T21:41:17.960Z,16.47
2019-05-17T21:43:45.623Z,17.30
2019-05-17T21:46:13.268Z,17.07
2019-05-17T21:48:40.911Z,17.30
2019-05-17T21:51:08.543Z,17.37
2019-05-17T21:53:36.205Z,15.77
2019-05-17T21:56:03.891Z,16.50
2019-05-17T21:58:31.520Z,17.80
2019-05-17T22:01:07.846Z,17.17
2019-05-17T22:03:35.563Z,17.77
2019-05-17T22:06:03.182Z,17.63
2019-05-17T22:08:30.853Z,17.83
2019-05-17T22:10:58.464Z,17.60
2019-05-17T22:13:26.123Z,17.03
2019-05-17T22:15:53.750Z,17.60
2019-05-17T22:18:21.777Z,18.10
2019-05-17T22:20:49.425Z,18.70
2019-05-17T22:23:17.083Z,18.93
2019-05-17T22:25:44.681Z,17.00
2019-05-17T22:28:12.315Z,18.10
2019-05-17T22:30:39.959Z,19.90
2019-05-17T22:33:07.607Z,20.07
2019-05-17T22:35:35.249Z,19.17
2019-05-17T22:38:02.883Z,18.57
2019-05-17T22:40:30.499Z,18.63
2019-05-17T22:42:58.146Z,18.43
2019-05-17T22:45:25.789Z,19.00
2019-05-17T22:47:53.489Z,18.93
2019-05-17T22:50:21.088Z,18.97
2019-05-17T22:52:48.712Z,18.47
2019-05-17T22:55:16.359Z,19.63
2019-05-17T22:57:44.038Z,18.50
2019-05-17T23:00:11.662Z,19.10
2019-05-17T23:02:39.322Z,19.60
2019-05-17T23:05:06.972Z,20.07
2019-05-17T23:07:34.644Z,19.83
2019-05-17T23:10:02.313Z,20.40
2019-05-17T23:12:29.948Z,19.87
2019-05-17T23:14:57.570Z,20.40
2019-05-17T23:17:25.236Z,21.30
2019-05-17T23:19:52.874Z,21.57
2019-05-17T23:22:22.060Z,20.80
2019-05-17T23:24:49.634Z,21.40
2019-05-17T23:27:17.255Z,21.80
2019-05-17T23:29:44.880Z,21.40
2019-05-17T23:32:12.473Z,21.87
2019-05-17T23:34:40.128Z,21.43
2019-05-17T23:37:07.742Z,24.40
2019-05-17T23:39:35.360Z,21.93
2019-05-17T23:42:02.986Z,23.70
2019-05-17T23:44:30.660Z,23.40
2019-05-17T23:47:06.831Z,23.77
2019-05-17T23:49:27.768Z,24.87
2019-05-17T23:51:55.344Z,23.33
2019-05-17T23:54:22.973Z,24.87
2019-05-17T23:56:50.592Z,23.23
2019-05-17T23:59:18.207Z,24.00
